createdAt,value
2017-10-16T00:00:00.568Z,85.49
2017-10-16T00:02:28.250Z,85.25
2017-10-16T00:04:57.447Z,85.97
2017-10-16T00:07:25.104Z,85.49
2017-10-16T00:09:53.546Z,85.66
2017-10-16T00:12:21.332Z,85.70
2017-10-16T00:14:48.997Z,86.59
2017-10-16T00:17:16.672Z,85.91
2017-10-16T00:19:44.428Z,86.23
2017-10-16T00:22:12.143Z,85.90
2017-10-16T00:24:39.888Z,86.12
2017-10-16T00:27:07.701Z,86.41
2017-10-16T00:29:35.379Z,85.71
2017-10-16T00:32:03.132Z,85.83
2017-10-16T00:34:30.904Z,85.84
2017-10-16T00:36:58.730Z,86.65
2017-10-16T00:39:26.485Z,87.50
2017-10-16T00:41:54.170Z,87.79
2017-10-16T00:44:21.891Z,87.09
2017-10-16T00:46:49.567Z,87.18
2017-10-16T00:49:17.321Z,86.36
2017-10-16T00:51:45.026Z,86.48
2017-10-16T00:54:12.739Z,86.77
2017-10-16T00:56:40.522Z,86.26
2017-10-16T00:59:08.349Z,86.33
2017-10-16T01:01:36.110Z,85.98
2017-10-16T01:04:03.813Z,86.67
2017-10-16T01:06:31.494Z,86.37
2017-10-16T01:08:59.594Z,86.72
2017-10-16T01:11:27.342Z,87.08
2017-10-16T01:13:55.105Z,86.41
2017-10-16T01:16:22.909Z,86.92
2017-10-16T01:18:51.826Z,86.27
2017-10-16T01:21:19.530Z,86.21
2017-10-16T01:23:47.398Z,87.45
2017-10-16T01:26:15.400Z,88.04
2017-10-16T01:28:43.480Z,88.08
2017-10-16T01:31:11.186Z,86.99
2017-10-16T01:33:38.940Z,86.73
2017-10-16T01:36:06.774Z,87.70
2017-10-16T01:38:35.598Z,87.63
2017-10-16T01:41:03.382Z,86.12
2017-10-16T01:43:32.147Z,86.05
2017-10-16T01:45:59.900Z,86.23
2017-10-16T01:48:27.673Z,86.40
2017-10-16T01:50:56.334Z,86.43
2017-10-16T01:53:24.077Z,86.57
2017-10-16T01:55:51.900Z,87.06
2017-10-16T01:58:19.680Z,87.50
2017-10-16T02:00:48.807Z,87.89
2017-10-16T02:03:16.568Z,89.60
2017-10-16T02:05:44.270Z,89.81
2017-10-16T02:08:12.020Z,89.89
2017-10-16T02:10:39.723Z,88.62
2017-10-16T02:13:07.432Z,88.98
2017-10-16T02:15:35.158Z,89.37
2017-10-16T02:18:02.899Z,88.62
2017-10-16T02:20:30.611Z,88.55
2017-10-16T02:22:58.285Z,87.65
2017-10-16T02:25:26.108Z,88.20
2017-10-16T02:27:53.858Z,88.34
2017-10-16T02:30:21.602Z,88.62
2017-10-16T02:32:49.258Z,88.60
2017-10-16T02:35:17.008Z,88.15
2017-10-16T02:37:44.695Z,87.53
2017-10-16T02:40:12.416Z,87.24
2017-10-16T02:42:40.164Z,87.28
2017-10-16T02:45:07.848Z,87.06
2017-10-16T02:47:35.560Z,86.78
2017-10-16T02:50:03.274Z,86.70
2017-10-16T02:52:31.017Z,86.84
2017-10-16T02:54:58.694Z,86.66
2017-10-16T02:57:26.379Z,85.93
2017-10-16T02:59:54.144Z,86.64
2017-10-16T03:02:21.863Z,87.08
2017-10-16T03:04:49.630Z,87.28
2017-10-16T03:07:17.314Z,86.67
2017-10-16T03:09:45.047Z,86.82
2017-10-16T03:12:12.794Z,86.60
2017-10-16T03:14:40.545Z,86.92
2017-10-16T03:17:08.259Z,86.46
2017-10-16T03:19:36.003Z,86.41
2017-10-16T03:22:03.714Z,87.46
2017-10-16T03:24:31.461Z,86.33
2017-10-16T03:26:59.183Z,86.57
2017-10-16T03:29:26.974Z,87.44
2017-10-16T03:31:54.713Z,88.24
2017-10-16T03:34:22.470Z,87.88
2017-10-16T03:36:50.184Z,88.57
2017-10-16T03:39:18.085Z,88.15
2017-10-16T03:41:45.821Z,88.29
2017-10-16T03:44:13.481Z,88.63
2017-10-16T03:46:41.244Z,88.37
2017-10-16T03:49:08.991Z,88.39
2017-10-16T03:51:36.653Z,88.77
2017-10-16T03:54:04.375Z,88.62
2017-10-16T03:56:32.205Z,89.00
2017-10-16T03:58:59.996Z,89.77
2017-10-16T04:01:27.669Z,90.15
2017-10-16T04:03:55.394Z,89.62
2017-10-16T04:06:23.097Z,90.02
2017-10-16T04:08:50.758Z,90.21
2017-10-16T04:11:18.508Z,89.83
2017-10-16T04:13:46.173Z,90.12
2017-10-16T04:16:13.932Z,90.07
2017-10-16T04:18:41.729Z,90.42
2017-10-16T04:21:09.420Z,90.00
2017-10-16T04:23:37.097Z,91.72
2017-10-16T04:26:04.836Z,91.48
2017-10-16T04:28:32.568Z,90.93
2017-10-16T04:31:00.258Z,90.56
2017-10-16T04:33:27.959Z,89.98
2017-10-16T04:35:55.773Z,89.63
2017-10-16T04:38:23.495Z,89.45
2017-10-16T04:40:51.234Z,89.76
2017-10-16T04:43:18.976Z,90.23
2017-10-16T04:45:46.706Z,90.37
2017-10-16T04:48:14.399Z,90.93
2017-10-16T04:50:42.096Z,91.68
2017-10-16T04:53:09.832Z,91.78
2017-10-16T04:55:37.540Z,91.62
2017-10-16T04:58:05.263Z,91.69
2017-10-16T05:00:32.930Z,91.83
2017-10-16T05:03:00.611Z,91.34
2017-10-16T05:05:28.351Z,90.79
2017-10-16T05:07:56.053Z,91.27
2017-10-16T05:10:23.771Z,91.43
2017-10-16T05:12:51.502Z,91.78
2017-10-16T05:15:19.195Z,92.05
2017-10-16T05:17:46.916Z,91.96
2017-10-16T05:20:14.626Z,91.94
2017-10-16T05:22:42.356Z,92.31
2017-10-16T05:25:10.036Z,92.31
2017-10-16T05:27:37.833Z,92.06
2017-10-16T05:30:05.588Z,93.12
2017-10-16T05:32:34.322Z,93.15
2017-10-16T05:35:02.018Z,92.88
2017-10-16T05:37:29.753Z,92.54
2017-10-16T05:39:57.480Z,92.33
2017-10-16T05:42:26.105Z,91.62
2017-10-16T05:44:53.803Z,91.49
2017-10-16T05:47:21.565Z,91.77
2017-10-16T05:49:49.253Z,91.81
2017-10-16T05:52:17.054Z,92.63
2017-10-16T05:54:44.731Z,93.17
2017-10-16T05:57:12.478Z,93.78
2017-10-16T05:59:41.162Z,93.92
2017-10-16T06:02:08.916Z,94.12
2017-10-16T06:04:36.742Z,93.36
2017-10-16T06:07:04.520Z,92.91
2017-10-16T06:09:32.331Z,92.81
2017-10-16T06:12:00.129Z,93.56
2017-10-16T06:14:27.928Z,94.05
2017-10-16T06:16:55.707Z,95.00
2017-10-16T06:19:23.428Z,95.57
2017-10-16T06:21:51.168Z,95.63
2017-10-16T06:24:19.971Z,95.21
2017-10-16T06:26:47.664Z,94.55
2017-10-16T06:29:15.362Z,93.48
2017-10-16T06:31:43.197Z,93.32
2017-10-16T06:34:10.921Z,93.97
2017-10-16T06:36:38.640Z,94.33
2017-10-16T06:39:06.490Z,94.22
2017-10-16T06:41:34.213Z,93.70
2017-10-16T06:44:03.222Z,93.24
2017-10-16T06:46:31.950Z,92.61
2017-10-16T06:48:59.690Z,92.28
2017-10-16T06:51:27.478Z,92.01
2017-10-16T06:53:56.268Z,92.12
2017-10-16T06:56:24.044Z,91.95
2017-10-16T06:58:51.845Z,90.97
2017-10-16T07:01:19.619Z,91.75
2017-10-16T07:03:47.478Z,91.74
2017-10-16T07:06:15.248Z,91.10
2017-10-16T07:08:42.947Z,91.40
2017-10-16T07:11:10.713Z,91.94
2017-10-16T07:13:38.542Z,90.63
2017-10-16T07:16:06.397Z,91.12
2017-10-16T07:18:34.271Z,90.61
2017-10-16T07:21:03.027Z,91.22
2017-10-16T07:23:30.849Z,91.65
2017-10-16T07:25:58.724Z,92.33
2017-10-16T07:28:26.512Z,92.13
2017-10-16T07:30:54.259Z,92.18
2017-10-16T07:33:22.092Z,91.84
2017-10-16T07:35:50.010Z,91.80
2017-10-16T07:38:18.888Z,91.98
2017-10-16T07:40:46.738Z,91.41
2017-10-16T07:43:14.591Z,90.96
2017-10-16T07:45:43.382Z,90.41
2017-10-16T07:48:11.127Z,88.79
2017-10-16T07:50:38.859Z,89.27
2017-10-16T07:53:06.663Z,90.03
2017-10-16T07:55:34.420Z,88.89
2017-10-16T07:58:02.190Z,88.32
2017-10-16T08:00:29.980Z,88.18
2017-10-16T08:02:57.732Z,88.22
2017-10-16T08:05:25.533Z,88.07
2017-10-16T08:07:53.328Z,88.33
2017-10-16T08:10:22.094Z,87.20
2017-10-16T08:12:49.863Z,87.59
2017-10-16T08:15:17.612Z,87.94
2017-10-16T08:17:45.395Z,87.89
2017-10-16T08:20:13.200Z,86.84
2017-10-16T08:22:41.022Z,85.69
2017-10-16T08:25:08.898Z,84.31
2017-10-16T08:27:36.719Z,82.18
2017-10-16T08:30:05.409Z,82.35
2017-10-16T08:32:33.247Z,82.66
2017-10-16T08:35:01.568Z,81.02
2017-10-16T08:37:30.453Z,82.00
2017-10-16T08:39:58.321Z,80.74
2017-10-16T08:42:26.233Z,80.62
2017-10-16T08:44:54.138Z,78.77
2017-10-16T08:47:21.992Z,80.87
2017-10-16T08:49:49.873Z,82.75
2017-10-16T08:52:17.641Z,81.26
2017-10-16T08:54:45.421Z,80.53
2017-10-16T08:57:13.244Z,78.59
2017-10-16T08:59:41.294Z,74.79
2017-10-16T09:02:09.098Z,76.05
2017-10-16T09:04:36.969Z,76.58
2017-10-16T09:07:05.660Z,74.72
2017-10-16T09:09:33.545Z,72.71
2017-10-16T09:12:01.389Z,72.93
2017-10-16T09:14:29.190Z,72.21
2017-10-16T09:16:57.031Z,68.53
2017-10-16T09:19:24.914Z,69.16
2017-10-16T09:21:52.791Z,69.72
2017-10-16T09:24:20.624Z,69.83
2017-10-16T09:26:49.602Z,72.41
2017-10-16T09:29:17.386Z,70.67
2017-10-16T09:31:45.219Z,71.07
2017-10-16T09:34:13.036Z,69.31
2017-10-16T09:36:40.907Z,69.09
2017-10-16T09:39:08.702Z,69.13
2017-10-16T09:41:36.503Z,68.99
2017-10-16T09:44:04.312Z,67.43
2017-10-16T09:46:32.069Z,69.31
2017-10-16T09:48:59.949Z,65.71
2017-10-16T09:51:27.752Z,65.33
2017-10-16T09:53:55.674Z,66.41
2017-10-16T09:56:23.789Z,65.42
2017-10-16T09:58:51.622Z,63.61
2017-10-16T10:01:19.480Z,63.11
2017-10-16T10:03:47.500Z,63.74
2017-10-16T10:06:15.219Z,64.67
2017-10-16T10:08:43.092Z,64.52
2017-10-16T10:11:10.876Z,62.66
2017-10-16T10:13:38.704Z,63.74
2017-10-16T10:16:06.462Z,63.02
2017-10-16T10:18:34.241Z,60.94
2017-10-16T10:21:02.015Z,61.24
2017-10-16T10:23:29.802Z,60.49
2017-10-16T10:25:57.576Z,58.73
2017-10-16T10:28:25.327Z,59.45
2017-10-16T10:30:53.068Z,58.90
2017-10-16T10:33:20.841Z,59.69
2017-10-16T10:35:48.576Z,59.86
2017-10-16T10:38:16.380Z,60.16
2017-10-16T10:40:45.214Z,58.18
2017-10-16T10:43:12.967Z,58.18
2017-10-16T10:45:40.698Z,56.83
2017-10-16T10:48:08.461Z,56.13
2017-10-16T10:50:36.173Z,55.71
2017-10-16T10:53:03.946Z,56.31
2017-10-16T10:55:32.580Z,55.28
2017-10-16T10:58:00.338Z,55.70
2017-10-16T11:00:28.065Z,53.87
2017-10-16T11:02:55.901Z,54.82
2017-10-16T11:05:23.649Z,56.78
2017-10-16T11:07:51.433Z,57.66
2017-10-16T11:10:19.242Z,56.36
2017-10-16T11:12:46.946Z,55.69
2017-10-16T11:15:14.765Z,56.70
2017-10-16T11:17:42.604Z,55.41
2017-10-16T11:20:10.395Z,56.20
2017-10-16T11:22:38.200Z,55.99
2017-10-16T11:25:05.960Z,55.39
2017-10-16T11:27:33.894Z,54.48
2017-10-16T11:30:02.204Z,56.60
2017-10-16T11:32:30.060Z,55.79
2017-10-16T11:34:58.385Z,55.23
2017-10-16T11:37:26.116Z,54.89
2017-10-16T11:39:54.475Z,54.99
2017-10-16T11:42:22.698Z,53.78
2017-10-16T11:44:50.735Z,53.39
2017-10-16T11:47:18.711Z,51.93
2017-10-16T11:49:46.636Z,53.04
2017-10-16T11:52:15.815Z,53.63
2017-10-16T11:54:43.718Z,52.41
2017-10-16T11:57:11.720Z,51.70
2017-10-16T11:59:39.624Z,51.01
2017-10-16T12:02:09.642Z,51.94
2017-10-16T12:04:38.476Z,51.51
2017-10-16T12:07:06.453Z,49.69
2017-10-16T12:09:34.323Z,50.62
2017-10-16T12:12:03.196Z,52.16
2017-10-16T12:14:31.214Z,49.44
2017-10-16T12:16:59.352Z,50.03
2017-10-16T12:19:27.294Z,49.40
2017-10-16T12:21:55.301Z,49.58
2017-10-16T12:24:23.256Z,49.90
2017-10-16T12:26:51.190Z,50.31
2017-10-16T12:29:19.207Z,51.03
2017-10-16T12:31:47.257Z,50.82
2017-10-16T12:34:15.267Z,50.87
2017-10-16T12:36:43.354Z,47.48
2017-10-16T12:39:11.352Z,48.41
2017-10-16T12:41:39.427Z,49.59
2017-10-16T12:44:08.012Z,48.62
2017-10-16T12:46:35.839Z,49.40
2017-10-16T12:49:03.738Z,50.93
2017-10-16T12:51:31.657Z,49.79
2017-10-16T12:53:59.564Z,50.20
2017-10-16T12:56:27.378Z,50.67
2017-10-16T12:58:55.207Z,51.08
2017-10-16T13:01:23.199Z,52.71
2017-10-16T13:03:51.132Z,52.31
2017-10-16T13:06:19.003Z,52.39
2017-10-16T13:08:46.768Z,52.05
2017-10-16T13:11:14.645Z,51.78
2017-10-16T13:13:42.543Z,52.31
2017-10-16T13:16:10.332Z,52.42
2017-10-16T13:18:38.561Z,51.48
2017-10-16T13:21:06.456Z,52.14
2017-10-16T13:23:34.256Z,52.82
2017-10-16T13:26:02.365Z,52.57
2017-10-16T13:28:30.268Z,53.16
2017-10-16T13:30:58.127Z,54.40
2017-10-16T13:33:26.017Z,53.85
2017-10-16T13:35:53.856Z,53.29
2017-10-16T13:38:21.782Z,51.17
2017-10-16T13:40:49.710Z,51.74
2017-10-16T13:43:18.489Z,50.52
2017-10-16T13:45:46.952Z,50.95
2017-10-16T13:48:14.893Z,50.70
2017-10-16T13:50:42.678Z,51.59
2017-10-16T13:53:10.551Z,52.66
2017-10-16T13:55:38.491Z,52.19
2017-10-16T13:58:07.431Z,51.94
2017-10-16T14:00:35.305Z,53.25
2017-10-16T14:03:03.178Z,52.97
2017-10-16T14:05:31.026Z,54.19
2017-10-16T14:07:58.998Z,54.60
2017-10-16T14:10:26.878Z,53.96
2017-10-16T14:12:54.995Z,54.25
2017-10-16T14:15:24.075Z,55.60
2017-10-16T14:17:51.979Z,55.51
2017-10-16T14:20:20.456Z,55.04
2017-10-16T14:22:49.199Z,55.47
2017-10-16T14:25:17.120Z,54.85
2017-10-16T14:27:45.038Z,56.38
2017-10-16T14:30:13.106Z,59.14
2017-10-16T14:32:42.200Z,59.69
2017-10-16T14:35:10.411Z,59.89
2017-10-16T14:37:38.288Z,59.76
2017-10-16T14:40:06.230Z,60.42
2017-10-16T14:42:35.179Z,60.03
2017-10-16T14:45:03.050Z,59.84
2017-10-16T14:47:31.060Z,60.86
2017-10-16T14:49:58.878Z,60.92
2017-10-16T14:52:27.894Z,60.88
2017-10-16T14:54:56.740Z,61.35
2017-10-16T14:57:24.555Z,61.83
2017-10-16T14:59:53.283Z,63.50
2017-10-16T15:02:31.010Z,63.36
2017-10-16T15:04:59.230Z,64.29
2017-10-16T15:07:27.924Z,65.42
2017-10-16T15:09:55.758Z,64.78
2017-10-16T15:12:23.602Z,64.43
2017-10-16T15:14:51.414Z,64.89
2017-10-16T15:17:19.239Z,65.59
2017-10-16T15:19:47.055Z,65.47
2017-10-16T15:22:14.881Z,66.08
2017-10-16T15:24:42.711Z,66.49
2017-10-16T15:27:10.512Z,68.25
2017-10-16T15:29:38.343Z,68.25
2017-10-16T15:32:06.372Z,68.80
2017-10-16T15:34:34.227Z,69.29
2017-10-16T15:37:02.192Z,69.89
2017-10-16T15:39:30.064Z,69.76
2017-10-16T15:41:57.903Z,70.19
2017-10-16T15:44:25.806Z,70.12
2017-10-16T15:46:54.957Z,71.35
2017-10-16T15:49:23.183Z,71.60
2017-10-16T15:51:51.262Z,71.22
2017-10-16T15:54:19.186Z,71.89
2017-10-16T15:56:47.151Z,72.22
2017-10-16T15:59:17.963Z,72.05
2017-10-16T16:01:45.969Z,72.79
2017-10-16T16:04:13.913Z,72.51
2017-10-16T16:06:42.816Z,72.76
2017-10-16T16:09:11.627Z,72.46
2017-10-16T16:11:39.778Z,72.01
2017-10-16T16:14:07.854Z,72.20
2017-10-16T16:16:36.062Z,71.55
2017-10-16T16:19:06.045Z,72.19
2017-10-16T16:21:35.317Z,72.78
2017-10-16T16:24:03.155Z,73.06
2017-10-16T16:26:31.970Z,73.37
2017-10-16T16:29:00.209Z,73.33
2017-10-16T16:31:28.123Z,74.47
2017-10-16T16:33:56.208Z,74.74
2017-10-16T16:36:24.247Z,75.61
2017-10-16T16:38:52.150Z,76.07
2017-10-16T16:41:20.334Z,75.40
2017-10-16T16:43:48.251Z,74.57
2017-10-16T16:46:17.489Z,75.59
2017-10-16T16:48:46.343Z,75.31
2017-10-16T16:51:15.141Z,75.35
2017-10-16T16:53:44.193Z,75.22
2017-10-16T16:56:12.386Z,75.34
2017-10-16T16:58:42.345Z,75.99
2017-10-16T17:01:10.506Z,76.01
2017-10-16T17:03:39.304Z,76.22
2017-10-16T17:06:08.644Z,76.69
2017-10-16T17:08:37.723Z,76.81
2017-10-16T17:11:05.680Z,78.20
2017-10-16T17:13:33.672Z,78.32
2017-10-16T17:16:01.890Z,77.46
2017-10-16T17:18:31.204Z,77.28
2017-10-16T17:20:59.318Z,77.16
2017-10-16T17:23:29.467Z,77.33
2017-10-16T17:25:59.603Z,77.75
2017-10-16T17:28:27.577Z,77.79
2017-10-16T17:30:55.649Z,78.04
2017-10-16T17:33:23.925Z,77.64
2017-10-16T17:35:53.112Z,77.89
2017-10-16T17:38:22.276Z,77.75
2017-10-16T17:40:51.262Z,78.19
2017-10-16T17:43:19.365Z,78.18
2017-10-16T17:45:47.392Z,77.91
2017-10-16T17:48:15.627Z,78.52
2017-10-16T17:50:43.785Z,78.51
2017-10-16T17:53:13.364Z,78.73
2017-10-16T17:55:41.368Z,77.90
2017-10-16T17:58:12.501Z,78.50
2017-10-16T18:00:40.544Z,78.87
2017-10-16T18:03:08.495Z,79.26
2017-10-16T18:05:36.514Z,79.31
2017-10-16T18:08:04.674Z,79.82
2017-10-16T18:10:32.567Z,80.24
2017-10-16T18:13:00.558Z,79.80
2017-10-16T18:15:28.371Z,79.45
2017-10-16T18:17:58.335Z,80.80
2017-10-16T18:20:29.860Z,80.80
2017-10-16T18:22:57.710Z,79.86
2017-10-16T18:25:25.700Z,80.22
2017-10-16T18:27:53.633Z,80.21
2017-10-16T18:30:21.443Z,80.21
2017-10-16T18:32:50.359Z,80.21
2017-10-16T18:35:18.181Z,80.08
2017-10-16T18:37:46.036Z,79.91
2017-10-16T18:40:13.835Z,80.29
2017-10-16T18:42:42.706Z,79.92
2017-10-16T18:45:11.747Z,80.60
2017-10-16T18:47:40.489Z,80.53
2017-10-16T18:50:08.556Z,80.38
2017-10-16T18:52:36.543Z,80.40
2017-10-16T18:55:04.920Z,80.98
2017-10-16T18:57:32.731Z,80.92
2017-10-16T19:00:00.574Z,80.39
2017-10-16T19:02:29.125Z,81.28
2017-10-16T19:04:57.232Z,81.72
2017-10-16T19:07:25.553Z,81.67
2017-10-16T19:09:53.652Z,81.26
2017-10-16T19:12:21.638Z,81.53
2017-10-16T19:14:53.083Z,81.50
2017-10-16T19:17:21.351Z,81.34
2017-10-16T19:19:49.340Z,82.03
2017-10-16T19:22:17.494Z,82.24
2017-10-16T19:24:45.684Z,82.34
2017-10-16T19:27:14.156Z,82.46
2017-10-16T19:29:42.183Z,81.80
2017-10-16T19:32:10.216Z,81.03
2017-10-16T19:34:38.550Z,81.20
2017-10-16T19:37:07.045Z,81.61
2017-10-16T19:39:35.849Z,81.11
2017-10-16T19:42:03.752Z,82.02
2017-10-16T19:44:31.836Z,81.58
2017-10-16T19:47:00.055Z,81.02
2017-10-16T19:49:27.928Z,81.99
2017-10-16T19:51:55.953Z,81.28
2017-10-16T19:54:23.788Z,82.38
2017-10-16T19:56:51.880Z,82.25
2017-10-16T19:59:19.793Z,82.36
2017-10-16T20:01:48.669Z,82.68
2017-10-16T20:04:16.663Z,82.67
2017-10-16T20:06:45.388Z,83.04
2017-10-16T20:09:13.254Z,82.95
2017-10-16T20:11:41.207Z,83.93
2017-10-16T20:14:09.772Z,84.20
2017-10-16T20:16:37.797Z,84.32
2017-10-16T20:19:06.072Z,84.59
2017-10-16T20:21:34.168Z,83.81
2017-10-16T20:24:03.688Z,83.38
2017-10-16T20:26:31.550Z,83.57
2017-10-16T20:29:00.550Z,83.17
2017-10-16T20:31:28.469Z,82.07
2017-10-16T20:33:56.622Z,82.90
2017-10-16T20:36:24.532Z,85.17
2017-10-16T20:38:52.408Z,83.84
2017-10-16T20:41:20.237Z,83.25
2017-10-16T20:43:48.057Z,83.99
2017-10-16T20:46:15.902Z,84.66
2017-10-16T20:48:43.708Z,84.44
2017-10-16T20:51:11.598Z,85.61
2017-10-16T20:53:39.470Z,85.21
2017-10-16T20:56:07.260Z,83.89
2017-10-16T20:58:35.134Z,83.53
2017-10-16T21:01:02.898Z,83.14
2017-10-16T21:03:30.714Z,83.09
2017-10-16T21:05:58.597Z,83.16
2017-10-16T21:08:26.509Z,83.68
2017-10-16T21:10:54.393Z,83.68
2017-10-16T21:13:22.357Z,83.64
2017-10-16T21:15:50.278Z,83.68
2017-10-16T21:18:18.115Z,84.21
2017-10-16T21:20:46.073Z,84.23
2017-10-16T21:23:13.950Z,83.62
2017-10-16T21:25:41.868Z,82.90
2017-10-16T21:28:09.817Z,83.14
2017-10-16T21:30:37.590Z,82.91
2017-10-16T21:33:05.435Z,83.03
2017-10-16T21:35:33.199Z,82.84
2017-10-16T21:38:00.983Z,83.71
2017-10-16T21:40:28.839Z,83.61
2017-10-16T21:42:56.665Z,84.04
2017-10-16T21:45:24.416Z,84.53
2017-10-16T21:47:52.280Z,83.89
2017-10-16T21:50:20.088Z,84.09
2017-10-16T21:52:47.852Z,83.77
2017-10-16T21:55:15.688Z,83.59
2017-10-16T21:57:43.557Z,84.21
2017-10-16T22:00:11.349Z,84.61
2017-10-16T22:02:39.212Z,83.61
2017-10-16T22:05:07.034Z,83.49
2017-10-16T22:07:34.811Z,84.03
2017-10-16T22:10:02.639Z,85.35
2017-10-16T22:12:30.466Z,84.85
2017-10-16T22:14:58.260Z,84.91
2017-10-16T22:17:26.061Z,84.54
2017-10-16T22:19:53.982Z,84.60
2017-10-16T22:22:21.729Z,84.93
2017-10-16T22:24:50.428Z,85.18
2017-10-16T22:27:18.254Z,84.78
2017-10-16T22:29:46.059Z,84.33
2017-10-16T22:32:13.834Z,84.38
2017-10-16T22:34:41.615Z,85.05
2017-10-16T22:37:09.399Z,84.80
2017-10-16T22:39:37.239Z,84.18
2017-10-16T22:42:05.149Z,84.09
2017-10-16T22:44:32.904Z,83.98
2017-10-16T22:47:00.709Z,84.32
2017-10-16T22:49:28.505Z,83.96
2017-10-16T22:51:56.263Z,83.93
2017-10-16T22:54:35.652Z,83.79
2017-10-16T22:57:03.409Z,84.44
2017-10-16T22:59:31.219Z,84.39
2017-10-16T23:01:58.970Z,84.69
2017-10-16T23:04:26.735Z,84.42
2017-10-16T23:06:55.673Z,84.90
2017-10-16T23:09:23.404Z,83.89
2017-10-16T23:11:51.364Z,83.89
2017-10-16T23:14:19.148Z,84.05
2017-10-16T23:16:46.880Z,84.29
2017-10-16T23:19:14.681Z,84.73
2017-10-16T23:21:42.520Z,84.66
2017-10-16T23:24:10.309Z,84.42
2017-10-16T23:26:38.063Z,84.46
2017-10-16T23:29:05.942Z,84.45
2017-10-16T23:31:33.990Z,84.70
2017-10-16T23:34:01.792Z,84.66
2017-10-16T23:36:29.542Z,84.91
2017-10-16T23:38:57.269Z,84.61
2017-10-16T23:41:25.055Z,84.55
2017-10-16T23:43:52.854Z,84.24
2017-10-16T23:46:20.660Z,84.08
2017-10-16T23:48:48.423Z,83.77
2017-10-16T23:51:16.142Z,83.76
2017-10-16T23:53:43.912Z,83.65
2017-10-16T23:56:11.717Z,84.56
2017-10-16T23:58:39.470Z,83.85
